sensor_id;sensor_type;location;lat;lon;timestamp;temperature;humidity
54960;DHT22;40860;51.710;8.736;2023-12-20T00:01:11;7.40;99.90
54960;DHT22;40860;51.710;8.736;2023-12-20T00:05:14;7.40;99.90
54960;DHT22;40860;51.710;8.736;2023-12-20T00:09:18;7.40;99.90
54960;DHT22;40860;51.710;8.736;2023-12-20T00:13:21;7.40;99.90
54960;DHT22;40860;51.710;8.736;2023-12-20T00:17:24;7.40;99.90
54960;DHT22;40860;51.710;8.736;2023-12-20T00:21:27;7.30;99.90
54960;DHT22;40860;51.710;8.736;2023-12-20T00:25:31;7.30;99.90
54960;DHT22;40860;51.710;8.736;2023-12-20T00:29:34;7.30;99.90
54960;DHT22;40860;51.710;8.736;2023-12-20T00:33:37;7.20;99.90
54960;DHT22;40860;51.710;8.736;2023-12-20T00:37:41;7.20;99.90
54960;DHT22;40860;51.710;8.736;2023-12-20T00:41:48;7.20;99.90
54960;DHT22;40860;51.710;8.736;2023-12-20T00:45:51;7.20;99.90
54960;DHT22;40860;51.710;8.736;2023-12-20T00:49:54;7.10;99.90
54960;DHT22;40860;51.710;8.736;2023-12-20T00:53:57;7.10;99.90
54960;DHT22;40860;51.710;8.736;2023-12-20T00:58:01;7.00;99.90
54960;DHT22;40860;51.710;8.736;2023-12-20T01:02:04;7.00;99.90
54960;DHT22;40860;51.710;8.736;2023-12-20T01:06:08;6.90;99.90
54960;DHT22;40860;51.710;8.736;2023-12-20T01:10:11;6.90;99.90
54960;DHT22;40860;51.710;8.736;2023-12-20T01:14:15;6.80;99.90
54960;DHT22;40860;51.710;8.736;2023-12-20T01:18:18;6.80;99.90
54960;DHT22;40860;51.710;8.736;2023-12-20T01:22:21;6.80;99.90
54960;DHT22;40860;51.710;8.736;2023-12-20T01:26:24;6.80;99.90
54960;DHT22;40860;51.710;8.736;2023-12-20T01:30:30;6.70;99.90
54960;DHT22;40860;51.710;8.736;2023-12-20T01:34:33;6.70;99.90
54960;DHT22;40860;51.710;8.736;2023-12-20T01:38:36;6.70;99.90
54960;DHT22;40860;51.710;8.736;2023-12-20T01:42:42;6.70;99.90
54960;DHT22;40860;51.710;8.736;2023-12-20T01:46:47;6.60;99.90
54960;DHT22;40860;51.710;8.736;2023-12-20T01:50:50;6.60;99.90
54960;DHT22;40860;51.710;8.736;2023-12-20T01:54:53;6.60;99.90
54960;DHT22;40860;51.710;8.736;2023-12-20T01:59:03;6.60;99.90
54960;DHT22;40860;51.710;8.736;2023-12-20T02:03:08;6.60;99.90
54960;DHT22;40860;51.710;8.736;2023-12-20T02:07:11;6.60;99.90
54960;DHT22;40860;51.710;8.736;2023-12-20T02:11:14;6.70;99.90
54960;DHT22;40860;51.710;8.736;2023-12-20T02:15:17;6.60;99.90
54960;DHT22;40860;51.710;8.736;2023-12-20T02:19:22;6.60;99.90
54960;DHT22;40860;51.710;8.736;2023-12-20T02:23:26;6.60;99.90
54960;DHT22;40860;51.710;8.736;2023-12-20T02:27:29;6.60;99.90
54960;DHT22;40860;51.710;8.736;2023-12-20T02:31:32;6.60;99.90
54960;DHT22;40860;51.710;8.736;2023-12-20T02:35:35;6.60;99.90
54960;DHT22;40860;51.710;8.736;2023-12-20T02:39:39;6.60;99.90
54960;DHT22;40860;51.710;8.736;2023-12-20T02:43:42;6.60;99.90
54960;DHT22;40860;51.710;8.736;2023-12-20T02:47:45;6.60;99.90
54960;DHT22;40860;51.710;8.736;2023-12-20T02:51:49;6.50;99.90
54960;DHT22;40860;51.710;8.736;2023-12-20T02:55:53;6.50;99.90
54960;DHT22;40860;51.710;8.736;2023-12-20T02:59:56;6.40;99.90
54960;DHT22;40860;51.710;8.736;2023-12-20T03:03:59;6.40;99.90
54960;DHT22;40860;51.710;8.736;2023-12-20T03:08:02;6.30;99.90
54960;DHT22;40860;51.710;8.736;2023-12-20T03:12:06;6.30;99.90
54960;DHT22;40860;51.710;8.736;2023-12-20T03:16:09;6.30;99.90
54960;DHT22;40860;51.710;8.736;2023-12-20T03:20:12;6.30;99.90
54960;DHT22;40860;51.710;8.736;2023-12-20T03:24:15;6.30;99.90
54960;DHT22;40860;51.710;8.736;2023-12-20T03:28:19;6.30;99.90
54960;DHT22;40860;51.710;8.736;2023-12-20T03:32:22;6.30;99.90
54960;DHT22;40860;51.710;8.736;2023-12-20T03:36:25;6.30;99.90
54960;DHT22;40860;51.710;8.736;2023-12-20T03:40:28;6.30;99.90
54960;DHT22;40860;51.710;8.736;2023-12-20T03:44:32;6.30;99.90
54960;DHT22;40860;51.710;8.736;2023-12-20T03:48:35;6.30;99.90
54960;DHT22;40860;51.710;8.736;2023-12-20T03:52:38;6.20;99.90
54960;DHT22;40860;51.710;8.736;2023-12-20T03:56:41;6.20;99.90
54960;DHT22;40860;51.710;8.736;2023-12-20T04:00:45;6.20;99.90
54960;DHT22;40860;51.710;8.736;2023-12-20T04:04:48;6.20;99.90
54960;DHT22;40860;51.710;8.736;2023-12-20T04:08:51;6.20;99.90
54960;DHT22;40860;51.710;8.736;2023-12-20T04:12:54;6.20;99.90
54960;DHT22;40860;51.710;8.736;2023-12-20T04:16:58;6.30;99.90
54960;DHT22;40860;51.710;8.736;2023-12-20T04:21:01;6.20;99.90
54960;DHT22;40860;51.710;8.736;2023-12-20T04:25:04;6.20;99.90
54960;DHT22;40860;51.710;8.736;2023-12-20T04:29:07;6.20;99.90
54960;DHT22;40860;51.710;8.736;2023-12-20T04:33:11;6.20;99.90
54960;DHT22;40860;51.710;8.736;2023-12-20T04:37:14;6.10;99.90
54960;DHT22;40860;51.710;8.736;2023-12-20T04:41:17;6.10;99.90
54960;DHT22;40860;51.710;8.736;2023-12-20T04:45:20;6.10;99.90
54960;DHT22;40860;51.710;8.736;2023-12-20T04:49:26;6.10;99.90
54960;DHT22;40860;51.710;8.736;2023-12-20T04:53:29;6.10;99.90
54960;DHT22;40860;51.710;8.736;2023-12-20T04:57:32;6.10;99.90
54960;DHT22;40860;51.710;8.736;2023-12-20T05:01:35;6.10;99.90
54960;DHT22;40860;51.710;8.736;2023-12-20T05:05:39;6.10;99.90
54960;DHT22;40860;51.710;8.736;2023-12-20T05:09:42;6.10;99.90
54960;DHT22;40860;51.710;8.736;2023-12-20T05:13:45;6.00;99.90
54960;DHT22;40860;51.710;8.736;2023-12-20T05:17:51;6.10;99.90
54960;DHT22;40860;51.710;8.736;2023-12-20T05:21:55;6.10;99.90
54960;DHT22;40860;51.710;8.736;2023-12-20T05:25:58;6.10;99.90
54960;DHT22;40860;51.710;8.736;2023-12-20T05:30:01;6.10;99.90
54960;DHT22;40860;51.710;8.736;2023-12-20T05:34:06;6.10;99.90
54960;DHT22;40860;51.710;8.736;2023-12-20T05:38:11;6.10;99.90
54960;DHT22;40860;51.710;8.736;2023-12-20T05:42:14;6.10;99.90
54960;DHT22;40860;51.710;8.736;2023-12-20T05:46:17;6.10;99.90
54960;DHT22;40860;51.710;8.736;2023-12-20T05:50:20;6.10;99.90
54960;DHT22;40860;51.710;8.736;2023-12-20T05:54:24;6.10;99.90
54960;DHT22;40860;51.710;8.736;2023-12-20T05:58:27;6.10;99.90
54960;DHT22;40860;51.710;8.736;2023-12-20T06:02:31;6.10;99.90
54960;DHT22;40860;51.710;8.736;2023-12-20T06:06:34;6.10;99.90
54960;DHT22;40860;51.710;8.736;2023-12-20T06:10:38;6.10;99.90
54960;DHT22;40860;51.710;8.736;2023-12-20T06:14:41;6.10;99.90
54960;DHT22;40860;51.710;8.736;2023-12-20T06:43:07;5.90;99.90
54960;DHT22;40860;51.710;8.736;2023-12-20T06:47:21;6.10;99.90
54960;DHT22;40860;51.710;8.736;2023-12-20T06:51:24;6.10;99.90
54960;DHT22;40860;51.710;8.736;2023-12-20T06:55:27;6.10;99.90
54960;DHT22;40860;51.710;8.736;2023-12-20T06:59:32;6.10;99.90
54960;DHT22;40860;51.710;8.736;2023-12-20T07:03:35;6.10;99.90
54960;DHT22;40860;51.710;8.736;2023-12-20T07:07:38;6.10;99.90
54960;DHT22;40860;51.710;8.736;2023-12-20T07:11:41;6.10;99.90
54960;DHT22;40860;51.710;8.736;2023-12-20T07:15:45;6.10;99.90
54960;DHT22;40860;51.710;8.736;2023-12-20T07:19:48;6.10;99.90
54960;DHT22;40860;51.710;8.736;2023-12-20T07:23:51;6.20;99.90
54960;DHT22;40860;51.710;8.736;2023-12-20T07:27:54;6.10;99.90
54960;DHT22;40860;51.710;8.736;2023-12-20T07:31:58;6.10;99.90
54960;DHT22;40860;51.710;8.736;2023-12-20T07:36:01;6.10;99.90
54960;DHT22;40860;51.710;8.736;2023-12-20T07:40:04;6.10;99.90
54960;DHT22;40860;51.710;8.736;2023-12-20T07:44:07;6.10;99.90
54960;DHT22;40860;51.710;8.736;2023-12-20T07:48:12;6.10;99.90
54960;DHT22;40860;51.710;8.736;2023-12-20T07:52:15;6.10;99.90
54960;DHT22;40860;51.710;8.736;2023-12-20T07:56:19;6.10;99.90
54960;DHT22;40860;51.710;8.736;2023-12-20T08:00:22;6.20;99.90
54960;DHT22;40860;51.710;8.736;2023-12-20T08:04:26;6.10;99.90
54960;DHT22;40860;51.710;8.736;2023-12-20T08:08:29;6.10;99.90
54960;DHT22;40860;51.710;8.736;2023-12-20T08:12:32;6.10;99.90
54960;DHT22;40860;51.710;8.736;2023-12-20T08:16:35;6.20;99.90
54960;DHT22;40860;51.710;8.736;2023-12-20T08:20:39;6.20;99.90
54960;DHT22;40860;51.710;8.736;2023-12-20T08:24:43;6.20;99.90
54960;DHT22;40860;51.710;8.736;2023-12-20T08:28:46;6.20;99.90
54960;DHT22;40860;51.710;8.736;2023-12-20T08:32:49;6.20;99.90
54960;DHT22;40860;51.710;8.736;2023-12-20T08:36:53;6.20;99.90
54960;DHT22;40860;51.710;8.736;2023-12-20T08:40:56;6.20;99.90
54960;DHT22;40860;51.710;8.736;2023-12-20T08:44:59;6.20;99.90
54960;DHT22;40860;51.710;8.736;2023-12-20T08:49:02;6.20;99.90
54960;DHT22;40860;51.710;8.736;2023-12-20T08:53:06;6.20;99.90
54960;DHT22;40860;51.710;8.736;2023-12-20T08:57:09;6.20;99.90
54960;DHT22;40860;51.710;8.736;2023-12-20T09:01:12;6.20;99.90
54960;DHT22;40860;51.710;8.736;2023-12-20T09:05:15;6.20;99.90
54960;DHT22;40860;51.710;8.736;2023-12-20T09:09:20;6.20;99.90
54960;DHT22;40860;51.710;8.736;2023-12-20T09:13:23;6.30;99.90
54960;DHT22;40860;51.710;8.736;2023-12-20T09:17:29;6.30;99.90
54960;DHT22;40860;51.710;8.736;2023-12-20T09:29:44;6.40;99.90
54960;DHT22;40860;51.710;8.736;2023-12-20T09:33:47;6.40;99.90
54960;DHT22;40860;51.710;8.736;2023-12-20T09:37:51;6.40;99.90
54960;DHT22;40860;51.710;8.736;2023-12-20T09:42:03;6.40;99.90
54960;DHT22;40860;51.710;8.736;2023-12-20T09:46:10;6.40;99.90
54960;DHT22;40860;51.710;8.736;2023-12-20T09:50:18;6.40;99.90
54960;DHT22;40860;51.710;8.736;2023-12-20T09:54:23;6.40;99.90
54960;DHT22;40860;51.710;8.736;2023-12-20T09:58:27;6.50;99.90
54960;DHT22;40860;51.710;8.736;2023-12-20T10:02:31;6.40;99.90
54960;DHT22;40860;51.710;8.736;2023-12-20T10:06:34;6.50;99.90
54960;DHT22;40860;51.710;8.736;2023-12-20T10:10:37;6.50;99.90
54960;DHT22;40860;51.710;8.736;2023-12-20T10:14:50;6.50;99.90
54960;DHT22;40860;51.710;8.736;2023-12-20T10:18:53;6.60;99.90
54960;DHT22;40860;51.710;8.736;2023-12-20T10:22:58;6.60;99.90
54960;DHT22;40860;51.710;8.736;2023-12-20T10:27:01;6.70;99.90
54960;DHT22;40860;51.710;8.736;2023-12-20T10:31:07;6.70;99.90
54960;DHT22;40860;51.710;8.736;2023-12-20T10:35:10;6.70;99.90
54960;DHT22;40860;51.710;8.736;2023-12-20T10:39:14;6.70;99.90
54960;DHT22;40860;51.710;8.736;2023-12-20T10:43:20;6.70;99.90
54960;DHT22;40860;51.710;8.736;2023-12-20T10:47:25;6.70;99.90
54960;DHT22;40860;51.710;8.736;2023-12-20T10:51:28;6.70;99.90
54960;DHT22;40860;51.710;8.736;2023-12-20T10:55:32;6.70;99.90
54960;DHT22;40860;51.710;8.736;2023-12-20T10:59:37;6.80;99.90
54960;DHT22;40860;51.710;8.736;2023-12-20T11:03:44;6.80;99.90
54960;DHT22;40860;51.710;8.736;2023-12-20T11:07:52;6.90;99.90
54960;DHT22;40860;51.710;8.736;2023-12-20T11:12:01;7.00;99.90
54960;DHT22;40860;51.710;8.736;2023-12-20T11:16:06;7.00;99.90
54960;DHT22;40860;51.710;8.736;2023-12-20T11:20:12;7.00;99.90
54960;DHT22;40860;51.710;8.736;2023-12-20T11:24:16;6.90;99.90
54960;DHT22;40860;51.710;8.736;2023-12-20T11:28:22;6.90;99.90
54960;DHT22;40860;51.710;8.736;2023-12-20T11:32:28;6.90;99.90
54960;DHT22;40860;51.710;8.736;2023-12-20T11:36:33;6.90;99.90
54960;DHT22;40860;51.710;8.736;2023-12-20T11:40:36;6.90;99.90
54960;DHT22;40860;51.710;8.736;2023-12-20T11:44:42;6.90;99.90
54960;DHT22;40860;51.710;8.736;2023-12-20T11:48:46;6.90;99.90
54960;DHT22;40860;51.710;8.736;2023-12-20T11:56:56;6.90;99.90
54960;DHT22;40860;51.710;8.736;2023-12-20T12:00:59;6.90;99.90
54960;DHT22;40860;51.710;8.736;2023-12-20T12:05:05;6.90;99.90
54960;DHT22;40860;51.710;8.736;2023-12-20T12:09:09;6.90;99.90
54960;DHT22;40860;51.710;8.736;2023-12-20T12:13:12;6.90;99.90
54960;DHT22;40860;51.710;8.736;2023-12-20T12:17:16;6.90;99.90
54960;DHT22;40860;51.710;8.736;2023-12-20T12:21:19;6.80;99.90
54960;DHT22;40860;51.710;8.736;2023-12-20T12:25:35;6.90;99.90
54960;DHT22;40860;51.710;8.736;2023-12-20T12:30:02;7.00;99.90
54960;DHT22;40860;51.710;8.736;2023-12-20T12:34:06;7.10;99.90
54960;DHT22;40860;51.710;8.736;2023-12-20T12:38:11;7.10;99.90
54960;DHT22;40860;51.710;8.736;2023-12-20T17:02:59;7.20;99.90
54960;DHT22;40860;51.710;8.736;2023-12-20T17:07:02;7.20;99.90
54960;DHT22;40860;51.710;8.736;2023-12-20T17:11:05;7.20;99.90
54960;DHT22;40860;51.710;8.736;2023-12-20T17:15:08;7.20;99.90
54960;DHT22;40860;51.710;8.736;2023-12-20T17:19:13;7.20;99.90
54960;DHT22;40860;51.710;8.736;2023-12-20T17:23:16;7.20;99.90
54960;DHT22;40860;51.710;8.736;2023-12-20T17:27:19;7.20;99.90
54960;DHT22;40860;51.710;8.736;2023-12-20T17:31:21;7.20;99.90
54960;DHT22;40860;51.710;8.736;2023-12-20T17:35:26;7.20;99.90
54960;DHT22;40860;51.710;8.736;2023-12-20T17:39:29;7.20;99.90
54960;DHT22;40860;51.710;8.736;2023-12-20T17:43:32;7.20;99.90
54960;DHT22;40860;51.710;8.736;2023-12-20T17:47:35;7.20;99.90
54960;DHT22;40860;51.710;8.736;2023-12-20T17:51:40;7.20;99.90
54960;DHT22;40860;51.710;8.736;2023-12-20T22:57:03;7.60;99.90
54960;DHT22;40860;51.710;8.736;2023-12-20T23:01:07;7.70;99.90
54960;DHT22;40860;51.710;8.736;2023-12-20T23:05:10;7.70;99.90
54960;DHT22;40860;51.710;8.736;2023-12-20T23:09:13;7.70;99.90
54960;DHT22;40860;51.710;8.736;2023-12-20T23:13:15;7.70;99.90
54960;DHT22;40860;51.710;8.736;2023-12-20T23:17:20;7.70;99.90
54960;DHT22;40860;51.710;8.736;2023-12-20T23:21:24;7.70;99.90
54960;DHT22;40860;51.710;8.736;2023-12-20T23:25:26;7.70;99.90
54960;DHT22;40860;51.710;8.736;2023-12-20T23:29:30;7.70;99.90
54960;DHT22;40860;51.710;8.736;2023-12-20T23:33:34;7.70;99.90
